sensor_id;sensor_type;location;lat;lon;timestamp;P1;durP1;ratioP1;P2;durP2;ratioP2
22439;SDS011;11387;51.612;7.210;2023-02-22T00:00:58;94.45;;;36.13;;
22439;SDS011;11387;51.612;7.210;2023-02-22T00:03:35;97.93;;;38.25;;
22439;SDS011;11387;51.612;7.210;2023-02-22T00:06:05;94.88;;;36.45;;
22439;SDS011;11387;51.612;7.210;2023-02-22T00:08:34;85.70;;;33.22;;
22439;SDS011;11387;51.612;7.210;2023-02-22T00:11:04;96.93;;;35.05;;
22439;SDS011;11387;51.612;7.210;2023-02-22T00:13:35;102.15;;;35.38;;
22439;SDS011;11387;51.612;7.210;2023-02-22T00:16:05;94.75;;;35.88;;
22439;SDS011;11387;51.612;7.210;2023-02-22T00:18:35;98.15;;;34.95;;
22439;SDS011;11387;51.612;7.210;2023-02-22T00:21:04;89.88;;;33.45;;
22439;SDS011;11387;51.612;7.210;2023-02-22T00:23:38;92.00;;;33.67;;
22439;SDS011;11387;51.612;7.210;2023-02-22T00:26:09;98.25;;;35.28;;
22439;SDS011;11387;51.612;7.210;2023-02-22T00:28:39;91.05;;;33.05;;
22439;SDS011;11387;51.612;7.210;2023-02-22T00:31:08;90.28;;;33.33;;
22439;SDS011;11387;51.612;7.210;2023-02-22T00:33:38;91.05;;;34.00;;
22439;SDS011;11387;51.612;7.210;2023-02-22T00:36:08;98.10;;;36.22;;
22439;SDS011;11387;51.612;7.210;2023-02-22T00:38:38;95.72;;;34.28;;
22439;SDS011;11387;51.612;7.210;2023-02-22T00:41:08;91.32;;;33.58;;
22439;SDS011;11387;51.612;7.210;2023-02-22T00:43:37;97.72;;;33.15;;
22439;SDS011;11387;51.612;7.210;2023-02-22T00:46:05;86.22;;;31.80;;
22439;SDS011;11387;51.612;7.210;2023-02-22T00:48:34;94.63;;;33.85;;
22439;SDS011;11387;51.612;7.210;2023-02-22T00:51:05;91.15;;;31.13;;
22439;SDS011;11387;51.612;7.210;2023-02-22T00:53:34;95.78;;;32.85;;
22439;SDS011;11387;51.612;7.210;2023-02-22T00:56:04;94.43;;;35.80;;
22439;SDS011;11387;51.612;7.210;2023-02-22T00:58:33;101.03;;;35.20;;
22439;SDS011;11387;51.612;7.210;2023-02-22T01:01:02;99.68;;;32.50;;
22439;SDS011;11387;51.612;7.210;2023-02-22T01:03:31;100.53;;;35.60;;
22439;SDS011;11387;51.612;7.210;2023-02-22T01:06:01;94.32;;;31.33;;
22439;SDS011;11387;51.612;7.210;2023-02-22T01:08:31;97.15;;;31.77;;
22439;SDS011;11387;51.612;7.210;2023-02-22T01:10:59;94.20;;;32.55;;
22439;SDS011;11387;51.612;7.210;2023-02-22T01:13:27;96.93;;;32.75;;
22439;SDS011;11387;51.612;7.210;2023-02-22T01:15:56;95.03;;;33.47;;
22439;SDS011;11387;51.612;7.210;2023-02-22T01:18:26;102.20;;;33.35;;
22439;SDS011;11387;51.612;7.210;2023-02-22T01:20:54;90.22;;;31.80;;
22439;SDS011;11387;51.612;7.210;2023-02-22T01:23:23;91.43;;;31.75;;
22439;SDS011;11387;51.612;7.210;2023-02-22T01:25:53;88.90;;;31.50;;
22439;SDS011;11387;51.612;7.210;2023-02-22T01:28:21;134.45;;;38.15;;
22439;SDS011;11387;51.612;7.210;2023-02-22T01:30:50;134.05;;;37.40;;
22439;SDS011;11387;51.612;7.210;2023-02-22T01:33:19;152.15;;;42.30;;
22439;SDS011;11387;51.612;7.210;2023-02-22T01:35:47;167.65;;;43.15;;
22439;SDS011;11387;51.612;7.210;2023-02-22T01:38:16;146.05;;;41.90;;
22439;SDS011;11387;51.612;7.210;2023-02-22T01:40:46;131.00;;;39.67;;
22439;SDS011;11387;51.612;7.210;2023-02-22T01:43:18;142.52;;;40.38;;
22439;SDS011;11387;51.612;7.210;2023-02-22T01:45:49;115.97;;;38.30;;
22439;SDS011;11387;51.612;7.210;2023-02-22T01:51:10;133.75;;;39.97;;
22439;SDS011;11387;51.612;7.210;2023-02-22T01:53:44;140.18;;;40.75;;
22439;SDS011;11387;51.612;7.210;2023-02-22T01:56:18;159.05;;;42.38;;
22439;SDS011;11387;51.612;7.210;2023-02-22T01:58:50;157.25;;;45.67;;
22439;SDS011;11387;51.612;7.210;2023-02-22T02:01:22;140.65;;;42.63;;
22439;SDS011;11387;51.612;7.210;2023-02-22T02:03:53;143.93;;;43.38;;
22439;SDS011;11387;51.612;7.210;2023-02-22T02:06:26;144.15;;;44.03;;
22439;SDS011;11387;51.612;7.210;2023-02-22T02:08:58;162.65;;;43.95;;
22439;SDS011;11387;51.612;7.210;2023-02-22T02:11:31;146.63;;;42.92;;
22439;SDS011;11387;51.612;7.210;2023-02-22T02:14:01;143.43;;;42.95;;
22439;SDS011;11387;51.612;7.210;2023-02-22T02:16:32;145.77;;;41.63;;
22439;SDS011;11387;51.612;7.210;2023-02-22T02:19:07;150.27;;;41.40;;
22439;SDS011;11387;51.612;7.210;2023-02-22T02:21:46;197.07;;;45.22;;
22439;SDS011;11387;51.612;7.210;2023-02-22T02:24:43;168.23;;;42.75;;
22439;SDS011;11387;51.612;7.210;2023-02-22T02:27:34;278.60;;;47.17;;
22439;SDS011;11387;51.612;7.210;2023-02-22T02:30:26;228.90;;;41.95;;
22439;SDS011;11387;51.612;7.210;2023-02-22T02:33:11;284.83;;;45.55;;
22439;SDS011;11387;51.612;7.210;2023-02-22T02:35:47;323.50;;;49.45;;
22439;SDS011;11387;51.612;7.210;2023-02-22T02:38:27;287.30;;;43.33;;
22439;SDS011;11387;51.612;7.210;2023-02-22T02:41:02;318.15;;;47.83;;
22439;SDS011;11387;51.612;7.210;2023-02-22T02:43:36;259.02;;;44.38;;
22439;SDS011;11387;51.612;7.210;2023-02-22T02:46:11;392.67;;;48.53;;
22439;SDS011;11387;51.612;7.210;2023-02-22T02:48:47;357.75;;;47.85;;
22439;SDS011;11387;51.612;7.210;2023-02-22T02:51:21;348.15;;;49.95;;
22439;SDS011;11387;51.612;7.210;2023-02-22T02:53:51;464.20;;;51.30;;
22439;SDS011;11387;51.612;7.210;2023-02-22T02:56:21;433.65;;;51.15;;
22439;SDS011;11387;51.612;7.210;2023-02-22T02:58:50;338.92;;;47.40;;
22439;SDS011;11387;51.612;7.210;2023-02-22T03:04:24;403.75;;;47.05;;
22439;SDS011;11387;51.612;7.210;2023-02-22T03:07:19;292.10;;;40.05;;
22439;SDS011;11387;51.612;7.210;2023-02-22T03:09:58;440.65;;;45.55;;
22439;SDS011;11387;51.612;7.210;2023-02-22T03:12:41;330.27;;;40.30;;
22439;SDS011;11387;51.612;7.210;2023-02-22T03:15:20;452.02;;;48.30;;
22439;SDS011;11387;51.612;7.210;2023-02-22T03:18:00;419.08;;;48.38;;
22439;SDS011;11387;51.612;7.210;2023-02-22T03:20:38;443.42;;;47.60;;
22439;SDS011;11387;51.612;7.210;2023-02-22T03:23:14;411.80;;;42.13;;
22439;SDS011;11387;51.612;7.210;2023-02-22T03:25:51;511.50;;;52.22;;
22439;SDS011;11387;51.612;7.210;2023-02-22T03:28:26;491.95;;;50.30;;
22439;SDS011;11387;51.612;7.210;2023-02-22T03:30:57;364.60;;;46.70;;
22439;SDS011;11387;51.612;7.210;2023-02-22T03:33:29;390.77;;;42.97;;
22439;SDS011;11387;51.612;7.210;2023-02-22T03:36:06;339.23;;;41.85;;
22439;SDS011;11387;51.612;7.210;2023-02-22T03:38:40;431.58;;;49.13;;
22439;SDS011;11387;51.612;7.210;2023-02-22T03:41:11;393.38;;;45.17;;
22439;SDS011;11387;51.612;7.210;2023-02-22T03:43:45;301.17;;;39.65;;
22439;SDS011;11387;51.612;7.210;2023-02-22T03:46:16;512.63;;;51.85;;
22439;SDS011;11387;51.612;7.210;2023-02-22T03:48:47;470.95;;;46.42;;
22439;SDS011;11387;51.612;7.210;2023-02-22T03:51:22;488.60;;;51.28;;
22439;SDS011;11387;51.612;7.210;2023-02-22T03:53:51;332.90;;;38.67;;
22439;SDS011;11387;51.612;7.210;2023-02-22T03:56:22;325.52;;;39.95;;
22439;SDS011;11387;51.612;7.210;2023-02-22T03:59:01;426.30;;;44.55;;
22439;SDS011;11387;51.612;7.210;2023-02-22T04:01:32;461.95;;;47.65;;
22439;SDS011;11387;51.612;7.210;2023-02-22T04:04:00;501.48;;;51.70;;
22439;SDS011;11387;51.612;7.210;2023-02-22T04:06:30;403.58;;;46.80;;
22439;SDS011;11387;51.612;7.210;2023-02-22T04:08:59;274.70;;;39.38;;
22439;SDS011;11387;51.612;7.210;2023-02-22T04:11:27;383.17;;;42.63;;
22439;SDS011;11387;51.612;7.210;2023-02-22T04:13:56;334.27;;;41.38;;
22439;SDS011;11387;51.612;7.210;2023-02-22T04:16:24;511.42;;;49.13;;
22439;SDS011;11387;51.612;7.210;2023-02-22T04:18:53;357.02;;;38.95;;
22439;SDS011;11387;51.612;7.210;2023-02-22T04:21:22;432.75;;;44.10;;
22439;SDS011;11387;51.612;7.210;2023-02-22T04:23:52;353.10;;;41.08;;
22439;SDS011;11387;51.612;7.210;2023-02-22T04:26:21;345.65;;;39.47;;
22439;SDS011;11387;51.612;7.210;2023-02-22T04:28:49;500.38;;;47.20;;
22439;SDS011;11387;51.612;7.210;2023-02-22T04:31:17;427.67;;;45.97;;
22439;SDS011;11387;51.612;7.210;2023-02-22T04:33:46;430.05;;;46.40;;
22439;SDS011;11387;51.612;7.210;2023-02-22T04:36:15;420.50;;;42.08;;
22439;SDS011;11387;51.612;7.210;2023-02-22T04:38:44;357.73;;;44.28;;
22439;SDS011;11387;51.612;7.210;2023-02-22T04:41:15;355.55;;;43.08;;
22439;SDS011;11387;51.612;7.210;2023-02-22T04:43:45;540.92;;;52.10;;
22439;SDS011;11387;51.612;7.210;2023-02-22T04:46:15;535.72;;;46.70;;
22439;SDS011;11387;51.612;7.210;2023-02-22T04:48:44;448.80;;;45.70;;
22439;SDS011;11387;51.612;7.210;2023-02-22T04:51:12;431.60;;;42.08;;
22439;SDS011;11387;51.612;7.210;2023-02-22T04:53:41;284.88;;;39.90;;
22439;SDS011;11387;51.612;7.210;2023-02-22T04:56:10;398.25;;;41.17;;
22439;SDS011;11387;51.612;7.210;2023-02-22T04:58:40;217.00;;;32.83;;
22439;SDS011;11387;51.612;7.210;2023-02-22T05:01:08;287.58;;;35.25;;
22439;SDS011;11387;51.612;7.210;2023-02-22T05:03:37;221.05;;;31.65;;
22439;SDS011;11387;51.612;7.210;2023-02-22T05:06:05;142.95;;;30.67;;
22439;SDS011;11387;51.612;7.210;2023-02-22T05:08:34;416.20;;;41.35;;
22439;SDS011;11387;51.612;7.210;2023-02-22T05:11:03;200.23;;;31.80;;
22439;SDS011;11387;51.612;7.210;2023-02-22T05:13:32;319.08;;;37.17;;
22439;SDS011;11387;51.612;7.210;2023-02-22T05:16:02;242.95;;;31.10;;
22439;SDS011;11387;51.612;7.210;2023-02-22T05:18:30;181.18;;;32.17;;
22439;SDS011;11387;51.612;7.210;2023-02-22T05:20:59;123.47;;;28.48;;
22439;SDS011;11387;51.612;7.210;2023-02-22T05:23:27;235.15;;;29.55;;
22439;SDS011;11387;51.612;7.210;2023-02-22T05:25:56;98.63;;;25.50;;
22439;SDS011;11387;51.612;7.210;2023-02-22T05:28:24;191.10;;;29.20;;
22439;SDS011;11387;51.612;7.210;2023-02-22T05:30:53;126.10;;;27.67;;
22439;SDS011;11387;51.612;7.210;2023-02-22T05:33:23;207.70;;;31.45;;
22439;SDS011;11387;51.612;7.210;2023-02-22T05:35:51;122.65;;;26.73;;
22439;SDS011;11387;51.612;7.210;2023-02-22T05:38:22;214.02;;;28.67;;
22439;SDS011;11387;51.612;7.210;2023-02-22T05:40:50;258.40;;;28.83;;
22439;SDS011;11387;51.612;7.210;2023-02-22T05:43:19;371.67;;;37.75;;
22439;SDS011;11387;51.612;7.210;2023-02-22T05:45:47;120.72;;;27.17;;
22439;SDS011;11387;51.612;7.210;2023-02-22T05:48:16;389.35;;;36.58;;
22439;SDS011;11387;51.612;7.210;2023-02-22T05:50:46;181.27;;;27.15;;
22439;SDS011;11387;51.612;7.210;2023-02-22T05:53:15;107.05;;;22.55;;
22439;SDS011;11387;51.612;7.210;2023-02-22T05:55:44;66.15;;;23.50;;
22439;SDS011;11387;51.612;7.210;2023-02-22T05:58:12;179.80;;;24.00;;
22439;SDS011;11387;51.612;7.210;2023-02-22T06:00:41;108.60;;;24.50;;
22439;SDS011;11387;51.612;7.210;2023-02-22T06:03:10;279.20;;;27.27;;
22439;SDS011;11387;51.612;7.210;2023-02-22T06:05:39;300.88;;;29.13;;
22439;SDS011;11387;51.612;7.210;2023-02-22T06:08:09;150.98;;;26.17;;
22439;SDS011;11387;51.612;7.210;2023-02-22T06:10:38;275.42;;;28.40;;
22439;SDS011;11387;51.612;7.210;2023-02-22T06:13:06;73.95;;;23.75;;
22439;SDS011;11387;51.612;7.210;2023-02-22T06:15:35;149.52;;;25.75;;
22439;SDS011;11387;51.612;7.210;2023-02-22T06:18:08;283.98;;;33.70;;
22439;SDS011;11387;51.612;7.210;2023-02-22T06:20:37;156.52;;;27.23;;
22439;SDS011;11387;51.612;7.210;2023-02-22T06:23:05;233.32;;;28.55;;
22439;SDS011;11387;51.612;7.210;2023-02-22T06:25:35;214.48;;;30.42;;
22439;SDS011;11387;51.612;7.210;2023-02-22T06:28:03;262.88;;;33.42;;
22439;SDS011;11387;51.612;7.210;2023-02-22T06:30:32;207.90;;;29.33;;
22439;SDS011;11387;51.612;7.210;2023-02-22T06:33:00;120.78;;;25.60;;
22439;SDS011;11387;51.612;7.210;2023-02-22T06:35:29;162.95;;;26.80;;
22439;SDS011;11387;51.612;7.210;2023-02-22T06:37:57;297.10;;;33.30;;
22439;SDS011;11387;51.612;7.210;2023-02-22T06:40:26;163.35;;;30.98;;
22439;SDS011;11387;51.612;7.210;2023-02-22T06:42:57;140.18;;;27.17;;
22439;SDS011;11387;51.612;7.210;2023-02-22T06:45:26;156.65;;;27.23;;
22439;SDS011;11387;51.612;7.210;2023-02-22T06:47:54;142.90;;;25.83;;
22439;SDS011;11387;51.612;7.210;2023-02-22T06:50:23;94.78;;;27.08;;
22439;SDS011;11387;51.612;7.210;2023-02-22T06:52:55;124.15;;;32.92;;
22439;SDS011;11387;51.612;7.210;2023-02-22T06:55:24;96.55;;;30.30;;
22439;SDS011;11387;51.612;7.210;2023-02-22T06:57:54;171.43;;;30.73;;
22439;SDS011;11387;51.612;7.210;2023-02-22T07:00:25;157.30;;;30.08;;
22439;SDS011;11387;51.612;7.210;2023-02-22T07:02:54;167.73;;;24.98;;
22439;SDS011;11387;51.612;7.210;2023-02-22T07:05:24;131.68;;;27.27;;
22439;SDS011;11387;51.612;7.210;2023-02-22T07:07:54;123.10;;;23.00;;
22439;SDS011;11387;51.612;7.210;2023-02-22T07:10:29;117.15;;;25.55;;
22439;SDS011;11387;51.612;7.210;2023-02-22T07:12:59;103.15;;;24.00;;
22439;SDS011;11387;51.612;7.210;2023-02-22T07:15:32;105.93;;;23.42;;
22439;SDS011;11387;51.612;7.210;2023-02-22T07:18:03;81.03;;;22.50;;
22439;SDS011;11387;51.612;7.210;2023-02-22T07:20:34;123.68;;;24.05;;
22439;SDS011;11387;51.612;7.210;2023-02-22T07:23:03;221.25;;;31.73;;
22439;SDS011;11387;51.612;7.210;2023-02-22T07:25:32;152.95;;;29.98;;
22439;SDS011;11387;51.612;7.210;2023-02-22T07:28:05;213.57;;;30.05;;
22439;SDS011;11387;51.612;7.210;2023-02-22T07:30:37;183.15;;;28.85;;
22439;SDS011;11387;51.612;7.210;2023-02-22T07:33:08;127.28;;;25.48;;
22439;SDS011;11387;51.612;7.210;2023-02-22T07:35:49;197.75;;;28.92;;
22439;SDS011;11387;51.612;7.210;2023-02-22T07:38:46;139.80;;;25.08;;
22439;SDS011;11387;51.612;7.210;2023-02-22T07:41:32;180.00;;;26.52;;
22439;SDS011;11387;51.612;7.210;2023-02-22T07:44:01;176.90;;;28.75;;
22439;SDS011;11387;51.612;7.210;2023-02-22T07:46:34;238.50;;;29.83;;
22439;SDS011;11387;51.612;7.210;2023-02-22T07:49:02;318.75;;;32.08;;
22439;SDS011;11387;51.612;7.210;2023-02-22T07:51:37;136.38;;;27.25;;
22439;SDS011;11387;51.612;7.210;2023-02-22T07:54:08;228.15;;;31.88;;
22439;SDS011;11387;51.612;7.210;2023-02-22T07:56:44;191.68;;;31.27;;
22439;SDS011;11387;51.612;7.210;2023-02-22T07:59:19;235.30;;;30.65;;
22439;SDS011;11387;51.612;7.210;2023-02-22T08:02:17;176.07;;;28.45;;
22439;SDS011;11387;51.612;7.210;2023-02-22T08:05:13;125.78;;;26.52;;
22439;SDS011;11387;51.612;7.210;2023-02-22T08:07:51;79.25;;;25.02;;
22439;SDS011;11387;51.612;7.210;2023-02-22T08:10:29;121.03;;;26.25;;
22439;SDS011;11387;51.612;7.210;2023-02-22T08:13:02;143.48;;;23.95;;
22439;SDS011;11387;51.612;7.210;2023-02-22T08:15:36;134.35;;;21.50;;
22439;SDS011;11387;51.612;7.210;2023-02-22T08:18:08;90.70;;;21.38;;
22439;SDS011;11387;51.612;7.210;2023-02-22T08:20:41;74.50;;;19.55;;
22439;SDS011;11387;51.612;7.210;2023-02-22T08:23:11;97.93;;;17.98;;
22439;SDS011;11387;51.612;7.210;2023-02-22T08:25:41;80.97;;;16.45;;
22439;SDS011;11387;51.612;7.210;2023-02-22T08:28:13;50.95;;;16.85;;
22439;SDS011;11387;51.612;7.210;2023-02-22T08:30:50;41.88;;;15.90;;
22439;SDS011;11387;51.612;7.210;2023-02-22T08:33:22;57.25;;;17.08;;
22439;SDS011;11387;51.612;7.210;2023-02-22T08:35:57;65.18;;;16.05;;
22439;SDS011;11387;51.612;7.210;2023-02-22T08:38:27;39.85;;;15.95;;
22439;SDS011;11387;51.612;7.210;2023-02-22T08:41:03;48.85;;;16.52;;
22439;SDS011;11387;51.612;7.210;2023-02-22T08:43:41;47.92;;;17.75;;
22439;SDS011;11387;51.612;7.210;2023-02-22T08:46:15;54.85;;;14.90;;
22439;SDS011;11387;51.612;7.210;2023-02-22T08:48:49;40.13;;;15.60;;
22439;SDS011;11387;51.612;7.210;2023-02-22T08:51:18;53.33;;;15.48;;
22439;SDS011;11387;51.612;7.210;2023-02-22T08:53:56;27.17;;;14.63;;
22439;SDS011;11387;51.612;7.210;2023-02-22T08:56:25;32.47;;;14.32;;
22439;SDS011;11387;51.612;7.210;2023-02-22T08:58:57;29.92;;;14.55;;
22439;SDS011;11387;51.612;7.210;2023-02-22T09:01:26;51.53;;;17.67;;
22439;SDS011;11387;51.612;7.210;2023-02-22T09:04:01;34.85;;;14.63;;
22439;SDS011;11387;51.612;7.210;2023-02-22T09:06:29;28.35;;;14.90;;
22439;SDS011;11387;51.612;7.210;2023-02-22T09:08:58;23.23;;;13.38;;
22439;SDS011;11387;51.612;7.210;2023-02-22T09:11:26;25.85;;;14.23;;
22439;SDS011;11387;51.612;7.210;2023-02-22T09:13:55;27.45;;;14.07;;
22439;SDS011;11387;51.612;7.210;2023-02-22T09:16:23;22.65;;;13.13;;
22439;SDS011;11387;51.612;7.210;2023-02-22T09:18:52;24.98;;;14.13;;
22439;SDS011;11387;51.612;7.210;2023-02-22T09:21:32;26.25;;;13.18;;
22439;SDS011;11387;51.612;7.210;2023-02-22T09:24:05;27.85;;;13.63;;
22439;SDS011;11387;51.612;7.210;2023-02-22T09:26:35;25.90;;;12.80;;
22439;SDS011;11387;51.612;7.210;2023-02-22T09:29:05;22.00;;;11.80;;
22439;SDS011;11387;51.612;7.210;2023-02-22T09:31:35;27.55;;;13.13;;
22439;SDS011;11387;51.612;7.210;2023-02-22T09:34:05;20.65;;;13.65;;
22439;SDS011;11387;51.612;7.210;2023-02-22T09:36:41;19.83;;;12.65;;
22439;SDS011;11387;51.612;7.210;2023-02-22T09:39:12;20.58;;;12.30;;
22439;SDS011;11387;51.612;7.210;2023-02-22T09:41:43;20.38;;;12.27;;
22439;SDS011;11387;51.612;7.210;2023-02-22T09:44:19;21.70;;;12.57;;
22439;SDS011;11387;51.612;7.210;2023-02-22T09:46:54;19.23;;;12.07;;
22439;SDS011;11387;51.612;7.210;2023-02-22T09:49:26;16.85;;;11.98;;
22439;SDS011;11387;51.612;7.210;2023-02-22T09:52:01;19.33;;;12.57;;
22439;SDS011;11387;51.612;7.210;2023-02-22T09:54:35;18.23;;;11.52;;
22439;SDS011;11387;51.612;7.210;2023-02-22T09:57:08;20.73;;;11.07;;
22439;SDS011;11387;51.612;7.210;2023-02-22T09:59:42;19.08;;;12.23;;
22439;SDS011;11387;51.612;7.210;2023-02-22T10:02:20;17.33;;;11.93;;
22439;SDS011;11387;51.612;7.210;2023-02-22T10:04:56;19.55;;;12.98;;
22439;SDS011;11387;51.612;7.210;2023-02-22T10:07:33;16.08;;;11.35;;
22439;SDS011;11387;51.612;7.210;2023-02-22T10:10:09;18.13;;;13.32;;
22439;SDS011;11387;51.612;7.210;2023-02-22T10:12:47;17.27;;;12.63;;
22439;SDS011;11387;51.612;7.210;2023-02-22T10:15:35;20.50;;;13.07;;
22439;SDS011;11387;51.612;7.210;2023-02-22T10:18:16;19.67;;;13.65;;
22439;SDS011;11387;51.612;7.210;2023-02-22T10:21:01;19.10;;;13.57;;
22439;SDS011;11387;51.612;7.210;2023-02-22T10:23:40;20.70;;;13.73;;
22439;SDS011;11387;51.612;7.210;2023-02-22T10:26:21;21.23;;;13.35;;
22439;SDS011;11387;51.612;7.210;2023-02-22T10:28:53;21.02;;;13.85;;
22439;SDS011;11387;51.612;7.210;2023-02-22T10:31:29;19.38;;;13.82;;
22439;SDS011;11387;51.612;7.210;2023-02-22T10:34:01;18.30;;;12.05;;
22439;SDS011;11387;51.612;7.210;2023-02-22T10:36:32;19.63;;;13.25;;
22439;SDS011;11387;51.612;7.210;2023-02-22T10:39:10;16.30;;;12.52;;
22439;SDS011;11387;51.612;7.210;2023-02-22T10:41:48;19.63;;;12.50;;
22439;SDS011;11387;51.612;7.210;2023-02-22T10:44:20;21.25;;;13.23;;
22439;SDS011;11387;51.612;7.210;2023-02-22T10:46:48;18.15;;;13.10;;
22439;SDS011;11387;51.612;7.210;2023-02-22T10:49:19;18.10;;;12.50;;
22439;SDS011;11387;51.612;7.210;2023-02-22T10:51:54;18.27;;;13.38;;
22439;SDS011;11387;51.612;7.210;2023-02-22T10:54:29;21.15;;;13.27;;
22439;SDS011;11387;51.612;7.210;2023-02-22T10:57:01;23.30;;;13.95;;
22439;SDS011;11387;51.612;7.210;2023-02-22T10:59:32;21.58;;;14.70;;
22439;SDS011;11387;51.612;7.210;2023-02-22T11:02:07;27.52;;;14.70;;
22439;SDS011;11387;51.612;7.210;2023-02-22T11:04:45;21.45;;;14.75;;
22439;SDS011;11387;51.612;7.210;2023-02-22T11:07:20;21.17;;;13.45;;
22439;SDS011;11387;51.612;7.210;2023-02-22T11:09:53;20.20;;;14.82;;
22439;SDS011;11387;51.612;7.210;2023-02-22T11:12:27;22.90;;;13.85;;
22439;SDS011;11387;51.612;7.210;2023-02-22T11:15:01;19.55;;;14.40;;
22439;SDS011;11387;51.612;7.210;2023-02-22T11:17:54;24.23;;;14.05;;
22439;SDS011;11387;51.612;7.210;2023-02-22T11:20:28;22.73;;;13.90;;
22439;SDS011;11387;51.612;7.210;2023-02-22T11:23:01;22.63;;;13.07;;
22439;SDS011;11387;51.612;7.210;2023-02-22T11:25:33;21.35;;;13.93;;
22439;SDS011;11387;51.612;7.210;2023-02-22T11:28:07;21.15;;;14.30;;
22439;SDS011;11387;51.612;7.210;2023-02-22T11:30:39;20.08;;;13.80;;
22439;SDS011;11387;51.612;7.210;2023-02-22T11:33:12;22.75;;;13.65;;
22439;SDS011;11387;51.612;7.210;2023-02-22T11:35:50;22.50;;;13.98;;
22439;SDS011;11387;51.612;7.210;2023-02-22T11:38:20;25.02;;;14.73;;
22439;SDS011;11387;51.612;7.210;2023-02-22T11:41:10;22.33;;;14.68;;
22439;SDS011;11387;51.612;7.210;2023-02-22T11:43:45;26.45;;;13.73;;
22439;SDS011;11387;51.612;7.210;2023-02-22T11:46:16;31.00;;;15.73;;
22439;SDS011;11387;51.612;7.210;2023-02-22T11:48:54;20.15;;;14.20;;
22439;SDS011;11387;51.612;7.210;2023-02-22T11:51:37;29.52;;;15.32;;
22439;SDS011;11387;51.612;7.210;2023-02-22T11:54:18;20.58;;;13.88;;
22439;SDS011;11387;51.612;7.210;2023-02-22T11:57:05;21.30;;;16.05;;
22439;SDS011;11387;51.612;7.210;2023-02-22T11:59:45;22.67;;;15.93;;
22439;SDS011;11387;51.612;7.210;2023-02-22T12:02:30;22.05;;;14.45;;
22439;SDS011;11387;51.612;7.210;2023-02-22T12:05:29;23.07;;;15.07;;
22439;SDS011;11387;51.612;7.210;2023-02-22T12:08:15;19.45;;;13.73;;
22439;SDS011;11387;51.612;7.210;2023-02-22T12:10:55;21.30;;;16.00;;
22439;SDS011;11387;51.612;7.210;2023-02-22T12:13:38;19.13;;;14.05;;
22439;SDS011;11387;51.612;7.210;2023-02-22T12:16:21;26.70;;;14.52;;
22439;SDS011;11387;51.612;7.210;2023-02-22T12:21:53;21.45;;;13.75;;
22439;SDS011;11387;51.612;7.210;2023-02-22T12:24:29;16.52;;;12.90;;
22439;SDS011;11387;51.612;7.210;2023-02-22T12:27:05;27.25;;;14.13;;
22439;SDS011;11387;51.612;7.210;2023-02-22T12:29:38;20.40;;;12.75;;
22439;SDS011;11387;51.612;7.210;2023-02-22T12:32:13;20.40;;;14.10;;
22439;SDS011;11387;51.612;7.210;2023-02-22T12:34:45;23.00;;;12.98;;
22439;SDS011;11387;51.612;7.210;2023-02-22T12:37:21;16.85;;;11.35;;
22439;SDS011;11387;51.612;7.210;2023-02-22T12:39:55;18.27;;;12.07;;
22439;SDS011;11387;51.612;7.210;2023-02-22T12:42:39;16.42;;;10.27;;
22439;SDS011;11387;51.612;7.210;2023-02-22T12:45:21;15.30;;;10.43;;
22439;SDS011;11387;51.612;7.210;2023-02-22T12:47:57;17.45;;;10.90;;
22439;SDS011;11387;51.612;7.210;2023-02-22T12:50:29;17.80;;;12.23;;
22439;SDS011;11387;51.612;7.210;2023-02-22T12:53:01;20.50;;;10.75;;
22439;SDS011;11387;51.612;7.210;2023-02-22T12:55:40;14.43;;;10.40;;
22439;SDS011;11387;51.612;7.210;2023-02-22T12:58:17;17.92;;;11.00;;
22439;SDS011;11387;51.612;7.210;2023-02-22T13:00:55;15.90;;;10.37;;
22439;SDS011;11387;51.612;7.210;2023-02-22T13:03:30;15.30;;;10.05;;
22439;SDS011;11387;51.612;7.210;2023-02-22T13:06:07;16.33;;;10.38;;
22439;SDS011;11387;51.612;7.210;2023-02-22T13:08:50;15.13;;;10.48;;
22439;SDS011;11387;51.612;7.210;2023-02-22T13:11:32;14.27;;;8.90;;
22439;SDS011;11387;51.612;7.210;2023-02-22T13:14:12;18.43;;;9.23;;
22439;SDS011;11387;51.612;7.210;2023-02-22T13:16:56;14.73;;;8.35;;
22439;SDS011;11387;51.612;7.210;2023-02-22T13:19:33;15.07;;;9.00;;
22439;SDS011;11387;51.612;7.210;2023-02-22T13:22:11;14.48;;;8.35;;
22439;SDS011;11387;51.612;7.210;2023-02-22T13:24:47;17.42;;;8.75;;
22439;SDS011;11387;51.612;7.210;2023-02-22T13:27:26;12.10;;;8.10;;
22439;SDS011;11387;51.612;7.210;2023-02-22T13:30:01;17.45;;;8.68;;
22439;SDS011;11387;51.612;7.210;2023-02-22T13:32:39;14.27;;;8.20;;
22439;SDS011;11387;51.612;7.210;2023-02-22T13:38:08;13.82;;;8.10;;
22439;SDS011;11387;51.612;7.210;2023-02-22T13:40:55;16.20;;;7.70;;
22439;SDS011;11387;51.612;7.210;2023-02-22T13:43:45;13.63;;;8.05;;
22439;SDS011;11387;51.612;7.210;2023-02-22T13:49:32;10.60;;;6.22;;
22439;SDS011;11387;51.612;7.210;2023-02-22T13:52:13;15.98;;;6.70;;
22439;SDS011;11387;51.612;7.210;2023-02-22T13:54:45;9.90;;;5.03;;
22439;SDS011;11387;51.612;7.210;2023-02-22T13:57:21;15.02;;;5.25;;
22439;SDS011;11387;51.612;7.210;2023-02-22T14:02:56;10.90;;;5.38;;
22439;SDS011;11387;51.612;7.210;2023-02-22T14:05:50;9.63;;;4.93;;
22439;SDS011;11387;51.612;7.210;2023-02-22T14:08:41;9.43;;;5.43;;
22439;SDS011;11387;51.612;7.210;2023-02-22T14:14:23;23.85;;;5.72;;
22439;SDS011;11387;51.612;7.210;2023-02-22T14:26:10;9.23;;;5.78;;
22439;SDS011;11387;51.612;7.210;2023-02-22T14:28:46;14.27;;;5.40;;
22439;SDS011;11387;51.612;7.210;2023-02-22T14:31:19;16.75;;;6.38;;
22439;SDS011;11387;51.612;7.210;2023-02-22T14:34:08;11.27;;;5.32;;
22439;SDS011;11387;51.612;7.210;2023-02-22T14:36:43;15.85;;;5.90;;
22439;SDS011;11387;51.612;7.210;2023-02-22T14:39:21;10.43;;;6.20;;
22439;SDS011;11387;51.612;7.210;2023-02-22T14:41:59;15.65;;;6.47;;
22439;SDS011;11387;51.612;7.210;2023-02-22T14:44:33;16.17;;;6.50;;
22439;SDS011;11387;51.612;7.210;2023-02-22T14:47:06;12.30;;;5.88;;
22439;SDS011;11387;51.612;7.210;2023-02-22T14:49:41;9.13;;;5.40;;
22439;SDS011;11387;51.612;7.210;2023-02-22T14:52:16;11.27;;;6.30;;
22439;SDS011;11387;51.612;7.210;2023-02-22T14:54:53;16.27;;;5.90;;
22439;SDS011;11387;51.612;7.210;2023-02-22T14:57:26;9.68;;;5.75;;
22439;SDS011;11387;51.612;7.210;2023-02-22T15:00:06;14.40;;;6.75;;
22439;SDS011;11387;51.612;7.210;2023-02-22T15:02:47;11.25;;;5.88;;
22439;SDS011;11387;51.612;7.210;2023-02-22T15:05:18;11.20;;;6.05;;
22439;SDS011;11387;51.612;7.210;2023-02-22T15:07:51;14.38;;;5.82;;
22439;SDS011;11387;51.612;7.210;2023-02-22T15:10:24;13.75;;;4.93;;
22439;SDS011;11387;51.612;7.210;2023-02-22T15:12:59;15.88;;;6.10;;
22439;SDS011;11387;51.612;7.210;2023-02-22T15:15:40;12.98;;;5.65;;
22439;SDS011;11387;51.612;7.210;2023-02-22T15:18:19;9.25;;;4.63;;
22439;SDS011;11387;51.612;7.210;2023-02-22T15:20:50;12.65;;;6.03;;
22439;SDS011;11387;51.612;7.210;2023-02-22T15:23:24;9.85;;;5.35;;
22439;SDS011;11387;51.612;7.210;2023-02-22T15:25:58;12.35;;;5.15;;